Time;durP1;ratioP1;P1;durP2;ratioP2;P2;SDS_P1;SDS_P2;PMS_P1;PMS_P2;Temp;Humidity;BMP_temperature;BMP_pressure;BME280_temperature;BME280_humidity;BME280_pressure;Samples;Min_cycle;Max_cycle;Signal;HPM_P1;HPM_P2
2022/07/11 00:00:41;;;;;;;0.67;0.67;;;;;;;;;;5059889;28;20237;-79
2022/07/11 00:03:07;;;;;;;0.67;0.60;;;;;;;;;;5058997;28;20215;-79
2022/07/11 00:05:33;;;;;;;1.47;0.70;;;;;;;;;;5059724;28;20246;-79
2022/07/11 00:07:59;;;;;;;2.60;0.57;;;;;;;;;;5059475;28;20573;-79
2022/07/11 00:10:25;;;;;;;1.10;1.00;;;;;;;;;;5060332;28;20177;-79
2022/07/11 00:12:51;;;;;;;6.07;1.23;;;;;;;;;;5076164;28;20208;-79
2022/07/11 00:15:17;;;;;;;1.20;1.10;;;;;;;;;;5060684;28;20229;-79
2022/07/11 00:17:43;;;;;;;0.93;0.93;;;;;;;;;;5060165;28;20219;-79
2022/07/11 00:20:09;;;;;;;1.37;1.27;;;;;;;;;;5060521;28;20694;-79
2022/07/11 00:22:35;;;;;;;1.73;1.20;;;;;;;;;;5060248;28;20212;-79
2022/07/11 00:25:01;;;;;;;1.27;0.90;;;;;;;;;;5060644;28;20181;-79
2022/07/11 00:27:27;;;;;;;1.20;1.10;;;;;;;;;;5077318;28;20197;-79
2022/07/11 00:29:53;;;;;;;1.20;1.10;;;;;;;;;;5077712;28;20177;-79
2022/07/11 00:32:19;;;;;;;1.20;1.10;;;;;;;;;;5078270;28;20230;-79
2022/07/11 00:34:45;;;;;;;1.40;1.30;;;;;;;;;;5060887;28;20208;-79
2022/07/11 00:37:11;;;;;;;1.00;1.00;;;;;;;;;;5060874;28;20197;-79
2022/07/11 00:39:37;;;;;;;22.60;3.57;;;;;;;;;;5060464;28;20205;-79
2022/07/11 00:42:10;;;;;;;1.10;1.03;;;;;;;;;;5076954;28;20177;-79
2022/07/11 00:44:37;;;;;;;30.97;3.73;;;;;;;;;;5060729;28;20180;-79
2022/07/11 00:47:03;;;;;;;33.97;5.43;;;;;;;;;;5060555;28;20565;-79
2022/07/11 00:49:29;;;;;;;40.13;10.10;;;;;;;;;;5076582;28;20258;-79
2022/07/11 00:51:55;;;;;;;6.13;5.50;;;;;;;;;;5078264;28;20185;-79
2022/07/11 00:54:22;;;;;;;1.30;0.80;;;;;;;;;;5079473;28;20188;-79
2022/07/11 00:56:48;;;;;;;1.07;1.00;;;;;;;;;;5078047;28;20169;-79
2022/07/11 00:59:14;;;;;;;4.03;3.67;;;;;;;;;;5061382;28;20290;-79
2022/07/11 01:01:40;;;;;;;1.10;1.00;;;;;;;;;;5078153;28;20188;-79
2022/07/11 01:04:06;;;;;;;1.60;1.10;;;;;;;;;;5061955;28;20181;-79
2022/07/11 01:06:32;;;;;;;0.90;0.90;;;;;;;;;;5078554;28;20188;-79
2022/07/11 01:08:58;;;;;;;0.80;0.80;;;;;;;;;;5062160;28;20193;-79
2022/07/11 01:11:26;;;;;;;0.83;0.83;;;;;;;;;;5062212;28;20181;-79
2022/07/11 01:13:52;;;;;;;1.30;0.90;;;;;;;;;;5079118;28;20226;-79
2022/07/11 01:16:22;;;;;;;0.70;0.70;;;;;;;;;;5063136;28;20669;-79
2022/07/11 01:18:49;;;;;;;0.83;0.83;;;;;;;;;;5078954;28;20204;-79
2022/07/11 01:21:30;;;;;;;0.90;0.90;;;;;;;;;;5079053;28;20650;-79
2022/07/11 01:23:57;;;;;;;0.87;0.87;;;;;;;;;;5081300;28;20187;-79
2022/07/11 01:26:23;;;;;;;1.37;0.80;;;;;;;;;;5080795;28;20223;-79
2022/07/11 01:28:50;;;;;;;1.23;0.80;;;;;;;;;;5064034;28;20221;-79
2022/07/11 01:31:16;;;;;;;0.80;0.80;;;;;;;;;;5079638;28;20639;-79
2022/07/11 01:33:43;;;;;;;0.73;0.73;;;;;;;;;;5063888;28;20208;-79
2022/07/11 01:36:09;;;;;;;0.90;0.90;;;;;;;;;;5082014;28;20173;-79
2022/07/11 01:38:36;;;;;;;0.93;0.93;;;;;;;;;;5082224;28;20193;-79
2022/07/11 01:44:06;;;;;;;1.03;0.77;;;;;;;;;;5073957;28;20215;-79
2022/07/11 01:46:31;;;;;;;0.83;0.83;;;;;;;;;;5056326;28;20268;-79
2022/07/11 01:48:57;;;;;;;0.97;0.97;;;;;;;;;;5056424;28;20232;-79
2022/07/11 01:51:24;;;;;;;35.07;3.37;;;;;;;;;;5056267;28;20181;-80
2022/07/11 01:53:50;;;;;;;1.33;1.23;;;;;;;;;;5074083;28;20279;-80
2022/07/11 01:56:16;;;;;;;1.60;1.30;;;;;;;;;;5073139;28;20197;-79
2022/07/11 01:58:42;;;;;;;1.50;1.37;;;;;;;;;;5055940;28;20201;-79
2022/07/11 02:01:09;;;;;;;1.43;1.20;;;;;;;;;;5072259;28;20650;-79
2022/07/11 02:03:37;;;;;;;1.40;1.30;;;;;;;;;;5072748;28;20173;-79
2022/07/11 02:06:03;;;;;;;0.97;0.93;;;;;;;;;;5072617;28;20666;-79
2022/07/11 02:08:29;;;;;;;1.23;1.13;;;;;;;;;;5056561;28;20253;-79
2022/07/11 02:10:55;;;;;;;136.10;10.73;;;;;;;;;;5056110;28;20563;-79
2022/07/11 02:13:22;;;;;;;1.20;1.10;;;;;;;;;;5055804;28;20200;-79
2022/07/11 02:15:50;;;;;;;2.60;1.47;;;;;;;;;;5074016;28;20632;-79
2022/07/11 02:18:17;;;;;;;2.50;1.13;;;;;;;;;;5072179;28;20211;-79
2022/07/11 02:20:45;;;;;;;1.40;1.30;;;;;;;;;;5072626;28;20172;-79
2022/07/11 02:23:12;;;;;;;1.40;1.10;;;;;;;;;;5072352;28;20581;-79
2022/07/11 02:25:40;;;;;;;1.33;1.23;;;;;;;;;;5056162;28;20184;-79
2022/07/11 02:28:10;;;;;;;1.63;1.20;;;;;;;;;;5072951;28;20300;-79
2022/07/11 02:30:37;;;;;;;2.13;1.57;;;;;;;;;;5055844;28;20264;-79
2022/07/11 02:33:03;;;;;;;1.80;1.43;;;;;;;;;;5072440;28;20545;-79
2022/07/11 02:35:29;;;;;;;2.07;1.60;;;;;;;;;;5072358;28;20229;-79
2022/07/11 02:37:55;;;;;;;1.47;1.37;;;;;;;;;;5072265;28;20291;-79
2022/07/11 02:40:21;;;;;;;1.80;1.70;;;;;;;;;;5072522;28;20786;-79
2022/07/11 02:42:51;;;;;;;1.97;1.77;;;;;;;;;;5071895;28;20169;-79
2022/07/11 02:45:17;;;;;;;2.00;1.60;;;;;;;;;;5072222;28;20223;-79
2022/07/11 02:47:43;;;;;;;2.27;1.70;;;;;;;;;;5055389;28;20223;-79
2022/07/11 02:50:11;;;;;;;3.20;1.57;;;;;;;;;;5072086;28;20259;-79
2022/07/11 02:52:37;;;;;;;3.87;1.70;;;;;;;;;;5072499;28;20177;-79
2022/07/11 02:55:03;;;;;;;2.33;1.60;;;;;;;;;;5072763;28;20207;-79
2022/07/11 02:57:29;;;;;;;2.00;1.60;;;;;;;;;;5072105;28;20177;-79
2022/07/11 02:59:55;;;;;;;2.77;1.80;;;;;;;;;;5074010;28;20211;-79
2022/07/11 03:02:21;;;;;;;2.53;1.70;;;;;;;;;;5055711;28;20201;-79
2022/07/11 03:04:47;;;;;;;1.97;1.60;;;;;;;;;;5055859;28;20177;-79
2022/07/11 03:07:13;;;;;;;1.87;1.50;;;;;;;;;;5055954;28;20177;-79
2022/07/11 03:09:39;;;;;;;2.50;2.00;;;;;;;;;;5056323;28;20251;-79
2022/07/11 03:12:05;;;;;;;2.03;1.83;;;;;;;;;;5055693;28;20188;-79
2022/07/11 03:14:31;;;;;;;4.00;1.97;;;;;;;;;;5075474;28;20228;-79
2022/07/11 03:16:57;;;;;;;1.60;1.50;;;;;;;;;;5059429;28;20235;-79
2022/07/11 03:19:23;;;;;;;2.70;1.80;;;;;;;;;;5076633;28;20212;-79
2022/07/11 03:21:49;;;;;;;1.80;1.70;;;;;;;;;;5058603;28;20201;-79
2022/07/11 03:24:15;;;;;;;2.50;1.80;;;;;;;;;;5058962;28;20272;-79
2022/07/11 03:26:41;;;;;;;2.03;1.83;;;;;;;;;;5075577;28;20184;-79
2022/07/11 03:29:08;;;;;;;1.60;1.50;;;;;;;;;;5075562;28;20196;-79
2022/07/11 03:31:34;;;;;;;3.40;1.90;;;;;;;;;;5075766;28;20180;-79
2022/07/11 03:34:00;;;;;;;2.40;1.70;;;;;;;;;;5058263;28;20209;-79
2022/07/11 03:36:26;;;;;;;1.97;1.87;;;;;;;;;;5058902;28;20173;-79
2022/07/11 03:38:52;;;;;;;2.67;1.60;;;;;;;;;;5074708;28;20647;-79
2022/07/11 03:41:54;;;;;;;1.83;1.70;;;;;;;;;;5057616;28;20627;-80
2022/07/11 03:44:20;;;;;;;4.27;1.70;;;;;;;;;;5074783;28;20173;-80
2022/07/11 03:46:46;;;;;;;2.30;1.60;;;;;;;;;;5058075;28;20177;-80
2022/07/11 03:49:12;;;;;;;2.13;1.53;;;;;;;;;;5058235;28;20254;-80
2022/07/11 03:51:38;;;;;;;2.30;1.60;;;;;;;;;;5074209;28;20184;-80
2022/07/11 03:54:04;;;;;;;1.50;1.40;;;;;;;;;;5074373;28;20193;-79
2022/07/11 03:56:30;;;;;;;1.50;1.40;;;;;;;;;;5057920;28;20230;-79
2022/07/11 03:58:56;;;;;;;1.60;1.50;;;;;;;;;;5058047;28;20240;-79
2022/07/11 04:01:22;;;;;;;1.20;1.03;;;;;;;;;;5058222;28;20181;-79
2022/07/11 04:03:48;;;;;;;2.13;1.20;;;;;;;;;;5057654;28;20196;-79
2022/07/11 04:06:15;;;;;;;2.50;1.20;;;;;;;;;;5058262;28;20197;-79
2022/07/11 04:08:41;;;;;;;1.20;1.10;;;;;;;;;;5057791;28;20295;-79
2022/07/11 04:11:07;;;;;;;21.47;4.30;;;;;;;;;;5074713;28;20267;-79
2022/07/11 04:13:34;;;;;;;2.13;1.20;;;;;;;;;;5057974;28;20202;-79
2022/07/11 04:16:00;;;;;;;1.27;1.17;;;;;;;;;;5074684;28;20180;-79
2022/07/11 04:18:26;;;;;;;2.47;1.10;;;;;;;;;;5057551;28;20216;-79
2022/07/11 04:20:52;;;;;;;1.40;1.10;;;;;;;;;;5074421;28;20295;-79
2022/07/11 04:23:18;;;;;;;2.40;0.90;;;;;;;;;;5074676;28;20547;-79
2022/07/11 04:25:44;;;;;;;1.33;1.10;;;;;;;;;;5058076;28;20275;-79
2022/07/11 04:28:10;;;;;;;1.20;1.10;;;;;;;;;;5058466;28;20228;-79
2022/07/11 04:30:36;;;;;;;1.20;1.10;;;;;;;;;;5074855;28;20165;-79
2022/07/11 04:33:02;;;;;;;2.07;1.20;;;;;;;;;;5074543;28;20181;-79
2022/07/11 04:35:28;;;;;;;3.87;1.30;;;;;;;;;;5058116;28;20181;-79
2022/07/11 04:37:55;;;;;;;1.20;1.10;;;;;;;;;;5074944;28;20193;-79
2022/07/11 04:40:23;;;;;;;1.20;1.10;;;;;;;;;;5058411;28;20173;-80
2022/07/11 04:42:49;;;;;;;1.80;0.93;;;;;;;;;;5074278;28;20623;-80
2022/07/11 04:45:15;;;;;;;1.33;1.00;;;;;;;;;;5057857;28;20177;-80
2022/07/11 04:47:41;;;;;;;1.20;1.00;;;;;;;;;;5057729;28;20180;-80
2022/07/11 04:50:08;;;;;;;1.33;1.00;;;;;;;;;;5057900;28;20185;-80
2022/07/11 04:52:34;;;;;;;0.90;0.80;;;;;;;;;;5074115;28;20226;-80
2022/07/11 04:55:00;;;;;;;2.07;1.20;;;;;;;;;;5074327;28;20675;-78
2022/07/11 04:57:27;;;;;;;1.00;0.90;;;;;;;;;;5074772;28;20264;-80
2022/07/11 04:59:53;;;;;;;1.10;1.00;;;;;;;;;;5074587;28;20183;-78
2022/07/11 05:02:19;;;;;;;1.30;1.00;;;;;;;;;;5058482;28;20234;-78
2022/07/11 05:04:45;;;;;;;1.13;1.00;;;;;;;;;;5076106;28;20177;-80
2022/07/11 05:07:13;;;;;;;1.00;1.00;;;;;;;;;;5060105;28;20189;-80
2022/07/11 05:09:39;;;;;;;1.20;1.10;;;;;;;;;;5074412;28;20197;-78
2022/07/11 05:12:06;;;;;;;1.03;0.97;;;;;;;;;;5072591;28;20223;-77
2022/07/11 05:14:32;;;;;;;2.37;1.10;;;;;;;;;;5072829;28;20200;-80
2022/07/11 05:16:58;;;;;;;3.33;1.40;;;;;;;;;;5059857;28;20181;-81
2022/07/11 05:19:24;;;;;;;1.50;1.17;;;;;;;;;;5076751;28;20208;-81
2022/07/11 05:21:50;;;;;;;1.80;1.10;;;;;;;;;;5059685;28;20181;-78
2022/07/11 05:24:18;;;;;;;1.20;0.97;;;;;;;;;;5057967;28;20185;-78
2022/07/11 05:26:44;;;;;;;1.53;1.00;;;;;;;;;;5075220;28;20169;-79
2022/07/11 05:29:10;;;;;;;1.20;1.10;;;;;;;;;;5058734;28;20205;-79
2022/07/11 05:31:36;;;;;;;1.00;0.93;;;;;;;;;;5074917;28;20181;-79
2022/07/11 05:34:02;;;;;;;4.43;1.20;;;;;;;;;;5075876;28;20193;-80
2022/07/11 05:36:30;;;;;;;1.10;1.00;;;;;;;;;;5063818;28;20187;-79
2022/07/11 05:38:56;;;;;;;1.17;1.10;;;;;;;;;;5066005;28;20201;-78
2022/07/11 05:41:22;;;;;;;0.90;0.90;;;;;;;;;;5058333;28;20188;-80
2022/07/11 05:43:48;;;;;;;1.57;1.00;;;;;;;;;;5055333;28;20208;-80
2022/07/11 05:46:14;;;;;;;1.20;1.10;;;;;;;;;;5055538;28;20689;-79
2022/07/11 05:48:40;;;;;;;1.20;1.10;;;;;;;;;;5072111;28;20206;-80
2022/07/11 05:51:06;;;;;;;1.30;1.10;;;;;;;;;;5045717;28;20176;-80
2022/07/11 05:53:32;;;;;;;1.53;1.23;;;;;;;;;;5035176;28;20296;-80
2022/07/11 05:55:58;;;;;;;1.03;1.00;;;;;;;;;;5036476;28;20197;-80
2022/07/11 05:58:25;;;;;;;1.20;1.10;;;;;;;;;;5052366;28;20197;-80
2022/07/11 06:00:51;;;;;;;2.33;1.00;;;;;;;;;;5052903;28;20170;-80
2022/07/11 06:03:17;;;;;;;1.90;1.20;;;;;;;;;;5035526;28;20178;-80
2022/07/11 06:05:43;;;;;;;1.47;1.20;;;;;;;;;;5035981;28;20227;-80
2022/07/11 06:10:53;;;;;;;1.13;1.03;;;;;;;;;;5052594;28;20196;-80
2022/07/11 06:16:35;;;;;;;0.97;0.97;;;;;;;;;;5053214;28;20538;-80
2022/07/11 06:19:01;;;;;;;1.10;1.00;;;;;;;;;;5052013;28;20211;-80
2022/07/11 06:21:28;;;;;;;1.27;1.07;;;;;;;;;;5051768;28;20210;-80
2022/07/11 06:23:57;;;;;;;1.70;1.10;;;;;;;;;;5053235;28;20577;-80
2022/07/11 06:26:23;;;;;;;1.20;1.10;;;;;;;;;;5052151;28;20189;-80
2022/07/11 06:28:49;;;;;;;1.10;1.00;;;;;;;;;;5035609;28;20201;-80
2022/07/11 06:31:16;;;;;;;1.30;1.00;;;;;;;;;;5035941;28;20177;-78
2022/07/11 06:33:42;;;;;;;1.03;0.93;;;;;;;;;;5051048;28;20208;-78
2022/07/11 06:36:08;;;;;;;1.43;0.93;;;;;;;;;;5051428;28;20165;-78
2022/07/11 06:38:34;;;;;;;2.23;1.03;;;;;;;;;;5051028;28;20289;-81
2022/07/11 06:41:01;;;;;;;1.03;0.93;;;;;;;;;;5051973;28;20174;-80
2022/07/11 06:43:28;;;;;;;1.40;1.30;;;;;;;;;;5052555;28;20182;-80
2022/07/11 06:45:54;;;;;;;1.97;1.00;;;;;;;;;;5053468;28;20189;-80
2022/07/11 06:48:21;;;;;;;0.90;0.90;;;;;;;;;;5038230;28;20209;-80
2022/07/11 06:50:47;;;;;;;0.90;0.90;;;;;;;;;;5056426;28;20184;-80
2022/07/11 06:53:13;;;;;;;1.13;0.97;;;;;;;;;;5039641;28;20178;-80
2022/07/11 06:55:39;;;;;;;1.17;1.00;;;;;;;;;;5057365;28;20620;-80
2022/07/11 06:58:06;;;;;;;1.10;1.00;;;;;;;;;;5055778;28;20193;-80
2022/07/11 07:00:32;;;;;;;1.50;1.00;;;;;;;;;;5039159;28;20272;-80
2022/07/11 07:02:58;;;;;;;0.80;0.80;;;;;;;;;;5039419;28;20182;-80
2022/07/11 07:05:25;;;;;;;1.60;0.90;;;;;;;;;;5039883;28;20239;-80
2022/07/11 07:07:51;;;;;;;0.97;0.70;;;;;;;;;;5056617;28;20202;-80
2022/07/11 07:10:18;;;;;;;0.80;0.63;;;;;;;;;;5056349;28;20181;-80
2022/07/11 07:15:52;;;;;;;0.60;0.60;;;;;;;;;;5057288;28;20204;-80
2022/07/11 07:18:18;;;;;;;0.60;0.60;;;;;;;;;;5057392;28;20210;-80
2022/07/11 07:20:44;;;;;;;0.63;0.63;;;;;;;;;;5039152;28;20181;-80
2022/07/11 07:23:10;;;;;;;0.40;0.40;;;;;;;;;;5057090;28;20174;-80
2022/07/11 07:25:37;;;;;;;0.70;0.70;;;;;;;;;;5039371;28;20182;-80
2022/07/11 07:28:03;;;;;;;0.50;0.50;;;;;;;;;;5040099;28;20251;-80
2022/07/11 07:30:29;;;;;;;0.53;0.53;;;;;;;;;;5039185;28;20173;-80
2022/07/11 07:32:55;;;;;;;0.50;0.50;;;;;;;;;;5040195;28;20257;-80
2022/07/11 07:35:21;;;;;;;0.60;0.60;;;;;;;;;;5057345;28;20198;-80
2022/07/11 07:37:47;;;;;;;0.70;0.70;;;;;;;;;;5040357;28;20260;-80
2022/07/11 07:40:13;;;;;;;0.90;0.70;;;;;;;;;;5057260;28;20564;-80
2022/07/11 07:42:39;;;;;;;1.77;0.73;;;;;;;;;;5040224;28;20570;-80
2022/07/11 07:45:05;;;;;;;0.60;0.60;;;;;;;;;;5040521;28;20628;-79
2022/07/11 07:47:32;;;;;;;0.87;0.87;;;;;;;;;;5040830;28;20271;-79
2022/07/11 07:49:58;;;;;;;0.80;0.80;;;;;;;;;;5040839;28;20181;-79
2022/07/11 07:52:24;;;;;;;0.80;0.80;;;;;;;;;;5041178;28;20240;-80
2022/07/11 07:54:50;;;;;;;0.80;0.80;;;;;;;;;;5057475;28;20232;-80
2022/07/11 07:57:16;;;;;;;1.13;0.80;;;;;;;;;;5040707;28;20206;-80
2022/07/11 07:59:42;;;;;;;229.93;213.93;;;;;;;;;;5040026;28;20201;-80
2022/07/11 08:02:08;;;;;;;94.63;6.43;;;;;;;;;;5056754;28;20181;-80
2022/07/11 08:04:34;;;;;;;14.07;13.20;;;;;;;;;;5041297;28;20186;-80
2022/07/11 08:07:00;;;;;;;35.60;6.43;;;;;;;;;;5056941;28;20178;-80
2022/07/11 08:09:26;;;;;;;2.73;1.87;;;;;;;;;;5057344;28;20193;-80
2022/07/11 08:11:52;;;;;;;0.50;0.50;;;;;;;;;;5041248;28;20181;-80
2022/07/11 08:14:18;;;;;;;0.53;0.53;;;;;;;;;;5041910;28;20197;-80
2022/07/11 08:16:44;;;;;;;0.60;0.40;;;;;;;;;;5041346;28;20578;-80
2022/07/11 08:19:11;;;;;;;0.40;0.40;;;;;;;;;;5058032;28;20568;-79
2022/07/11 08:21:37;;;;;;;0.50;0.50;;;;;;;;;;5057810;28;20173;-80
2022/07/11 08:24:04;;;;;;;0.50;0.50;;;;;;;;;;5058583;28;20209;-80
2022/07/11 08:26:30;;;;;;;0.57;0.40;;;;;;;;;;5058291;28;20177;-80
2022/07/11 08:28:56;;;;;;;0.53;0.30;;;;;;;;;;5059042;28;20197;-80
2022/07/11 08:31:23;;;;;;;0.40;0.33;;;;;;;;;;5039311;28;20178;-80
2022/07/11 08:33:50;;;;;;;0.33;0.33;;;;;;;;;;5037612;28;20296;-80
2022/07/11 08:36:16;;;;;;;0.30;0.30;;;;;;;;;;5054488;28;20295;-80
2022/07/11 08:38:46;;;;;;;0.30;0.30;;;;;;;;;;5037990;28;20267;-80
2022/07/11 08:41:12;;;;;;;0.30;0.30;;;;;;;;;;5054051;28;20165;-80
2022/07/11 08:43:38;;;;;;;0.20;0.20;;;;;;;;;;5054243;28;20177;-80
2022/07/11 08:46:05;;;;;;;42.37;3.50;;;;;;;;;;5055419;28;20252;-80
2022/07/11 08:48:32;;;;;;;0.20;0.20;;;;;;;;;;5054059;28;20225;-80
2022/07/11 08:51:00;;;;;;;38.37;11.50;;;;;;;;;;5037597;28;20622;-80
2022/07/11 08:53:27;;;;;;;0.27;0.27;;;;;;;;;;5037708;28;20227;-80
2022/07/11 08:55:53;;;;;;;0.33;0.33;;;;;;;;;;5054178;28;20188;-80
2022/07/11 08:58:20;;;;;;;0.30;0.30;;;;;;;;;;5054574;28;20644;-80
2022/07/11 09:00:46;;;;;;;0.50;0.50;;;;;;;;;;5037921;28;20188;-80
2022/07/11 09:03:17;;;;;;;0.40;0.40;;;;;;;;;;5037700;28;20184;-80
2022/07/11 09:05:44;;;;;;;0.40;0.40;;;;;;;;;;5038056;28;20174;-80
2022/07/11 09:08:11;;;;;;;0.50;0.50;;;;;;;;;;5053642;28;20246;-77
2022/07/11 09:10:40;;;;;;;0.60;0.60;;;;;;;;;;5052921;28;20182;-77
2022/07/11 09:13:14;;;;;;;0.50;0.50;;;;;;;;;;5036520;28;20173;-80
2022/07/11 09:15:44;;;;;;;0.50;0.50;;;;;;;;;;5054114;28;20354;-80
2022/07/11 09:18:28;;;;;;;0.60;0.60;;;;;;;;;;5054771;28;20228;-79
2022/07/11 09:26:33;;;;;;;0.50;0.50;;;;;;;;;;5056045;28;20169;-81
2022/07/11 09:29:06;;;;;;;0.57;0.57;;;;;;;;;;5056470;28;20273;-80
2022/07/11 09:31:33;;;;;;;0.60;0.60;;;;;;;;;;5040296;28;20544;-81
2022/07/11 09:34:02;;;;;;;0.70;0.60;;;;;;;;;;5044220;28;20201;-80
2022/07/11 09:36:54;;;;;;;1.77;0.70;;;;;;;;;;5059910;28;20728;-81
2022/07/11 09:39:28;;;;;;;1.10;1.00;;;;;;;;;;5057984;28;20282;-81
2022/07/11 09:41:54;;;;;;;21.53;5.00;;;;;;;;;;5065329;28;20177;-81
2022/07/11 09:44:22;;;;;;;0.00;0.00;;;;;;;;;;5073711;28;20178;-81
2022/07/11 09:46:49;;;;;;;0.00;0.00;;;;;;;;;;5073709;28;20206;-81
2022/07/11 09:49:16;;;;;;;0.00;0.00;;;;;;;;;;5053776;28;20193;-81
2022/07/11 09:51:42;;;;;;;0.97;0.67;;;;;;;;;;5052974;28;20181;-81
2022/07/11 09:54:09;;;;;;;0.60;0.60;;;;;;;;;;5036285;28;20300;-82
2022/07/11 09:56:39;;;;;;;0.10;0.10;;;;;;;;;;5036259;28;20200;-82
2022/07/11 09:59:07;;;;;;;0.00;0.00;;;;;;;;;;5052094;28;20196;-82
2022/07/11 10:01:33;;;;;;;0.10;0.10;;;;;;;;;;5053375;28;20171;-83
2022/07/11 10:03:59;;;;;;;0.00;0.00;;;;;;;;;;5052029;28;20177;-80
2022/07/11 10:06:26;;;;;;;0.00;0.00;;;;;;;;;;5036505;28;20226;-80
2022/07/11 10:08:52;;;;;;;0.00;0.00;;;;;;;;;;5052828;28;20221;-81
2022/07/11 10:11:19;;;;;;;0.00;0.00;;;;;;;;;;5036791;28;20276;-80
2022/07/11 10:13:45;;;;;;;0.03;0.03;;;;;;;;;;5052896;28;20668;-80
2022/07/11 10:16:17;;;;;;;0.20;0.00;;;;;;;;;;5036261;28;20192;-80
2022/07/11 10:18:51;;;;;;;0.00;0.00;;;;;;;;;;5052623;28;20272;-79
2022/07/11 10:21:44;;;;;;;0.00;0.00;;;;;;;;;;5052494;28;20260;-79
2022/07/11 10:24:42;;;;;;;0.20;0.20;;;;;;;;;;5053075;28;20194;-83
2022/07/11 10:27:17;;;;;;;0.00;0.00;;;;;;;;;;5022525;28;20272;-85
2022/07/11 10:29:50;;;;;;;0.00;0.00;;;;;;;;;;5055599;28;20204;-84
2022/07/11 10:32:16;;;;;;;0.00;0.00;;;;;;;;;;5055421;28;20268;-83
2022/07/11 10:34:43;;;;;;;0.00;0.00;;;;;;;;;;5056183;28;20264;-84
2022/07/11 10:37:09;;;;;;;0.00;0.00;;;;;;;;;;5038869;28;20181;-84
2022/07/11 10:39:36;;;;;;;0.00;0.00;;;;;;;;;;5055426;28;20540;-84
2022/07/11 10:42:04;;;;;;;0.00;0.00;;;;;;;;;;5055519;28;20178;-84
2022/07/11 10:44:48;;;;;;;0.00;0.00;;;;;;;;;;5039193;28;20189;-84
2022/07/11 10:47:35;;;;;;;0.00;0.00;;;;;;;;;;5055625;28;20173;-84
2022/07/11 10:50:03;;;;;;;0.00;0.00;;;;;;;;;;5055596;28;20184;-83
2022/07/11 10:52:32;;;;;;;0.20;0.20;;;;;;;;;;5038877;28;20185;-83
2022/07/11 10:54:58;;;;;;;0.00;0.00;;;;;;;;;;5055395;28;20197;-83
2022/07/11 10:57:24;;;;;;;0.00;0.00;;;;;;;;;;5055261;28;20173;-83
2022/07/11 10:59:57;;;;;;;0.00;0.00;;;;;;;;;;5055568;28;20194;-84
2022/07/11 11:02:23;;;;;;;0.00;0.00;;;;;;;;;;5038452;28;20693;-84
2022/07/11 11:04:58;;;;;;;0.03;0.03;;;;;;;;;;5055543;28;20174;-84
2022/07/11 11:07:27;;;;;;;0.00;0.00;;;;;;;;;;5056436;28;20166;-80
2022/07/11 11:09:53;;;;;;;0.00;0.00;;;;;;;;;;5058188;28;20180;-80
2022/07/11 11:12:20;;;;;;;0.00;0.00;;;;;;;;;;5058482;28;20181;-80
2022/07/11 11:14:46;;;;;;;0.00;0.00;;;;;;;;;;5042501;28;20209;-80
2022/07/11 11:17:30;;;;;;;0.00;0.00;;;;;;;;;;5042467;28;20268;-81
2022/07/11 11:19:56;;;;;;;0.00;0.00;;;;;;;;;;5059272;28;20204;-81
2022/07/11 11:22:23;;;;;;;0.00;0.00;;;;;;;;;;5061309;28;20170;-81
2022/07/11 11:24:52;;;;;;;0.00;0.00;;;;;;;;;;5060028;28;20189;-80
2022/07/11 11:27:19;;;;;;;0.00;0.00;;;;;;;;;;5060922;28;20269;-80
2022/07/11 11:29:45;;;;;;;0.00;0.00;;;;;;;;;;5060324;28;20265;-81
2022/07/11 11:32:12;;;;;;;0.00;0.00;;;;;;;;;;5055501;28;20184;-81
2022/07/11 11:34:39;;;;;;;0.00;0.00;;;;;;;;;;5038103;28;20335;-81
2022/07/11 11:37:05;;;;;;;0.00;0.00;;;;;;;;;;5055260;28;20172;-81
2022/07/11 11:39:35;;;;;;;0.00;0.00;;;;;;;;;;5055398;28;20198;-81
2022/07/11 11:42:03;;;;;;;0.00;0.00;;;;;;;;;;5039175;28;20185;-81
2022/07/11 11:44:29;;;;;;;0.00;0.00;;;;;;;;;;5057034;28;20648;-81
2022/07/11 11:46:55;;;;;;;0.00;0.00;;;;;;;;;;5039125;28;20192;-81
2022/07/11 11:49:21;;;;;;;0.00;0.00;;;;;;;;;;5039171;28;20259;-80
2022/07/11 11:51:48;;;;;;;0.20;0.20;;;;;;;;;;5038957;28;20177;-80
2022/07/11 11:54:22;;;;;;;0.00;0.00;;;;;;;;;;5039231;28;20259;-81
2022/07/11 11:56:48;;;;;;;0.00;0.00;;;;;;;;;;5055073;28;20169;-81
2022/07/11 11:59:15;;;;;;;0.20;0.10;;;;;;;;;;5055392;28;20243;-81
2022/07/11 12:01:42;;;;;;;0.00;0.00;;;;;;;;;;5055514;28;20205;-80
2022/07/11 12:04:10;;;;;;;0.00;0.00;;;;;;;;;;5045753;28;20253;-81
2022/07/11 12:06:56;;;;;;;0.00;0.00;;;;;;;;;;5055732;28;20253;-80
2022/07/11 12:09:46;;;;;;;0.00;0.00;;;;;;;;;;5055231;28;20197;-82
2022/07/11 12:14:54;;;;;;;0.00;0.00;;;;;;;;;;5057169;28;20202;-81
2022/07/11 12:17:28;;;;;;;0.00;0.00;;;;;;;;;;5055129;28;20178;-81
2022/07/11 12:19:54;;;;;;;0.00;0.00;;;;;;;;;;5056032;28;20200;-81
2022/07/11 12:22:20;;;;;;;0.00;0.00;;;;;;;;;;5055344;28;20208;-81
2022/07/11 12:24:48;;;;;;;0.20;0.20;;;;;;;;;;5056132;28;20572;-80
2022/07/11 12:27:17;;;;;;;0.00;0.00;;;;;;;;;;5057438;28;20170;-80
2022/07/11 12:29:48;;;;;;;0.00;0.00;;;;;;;;;;5056076;28;20197;-80
2022/07/11 12:32:14;;;;;;;0.20;0.20;;;;;;;;;;5054602;28;20173;-80
2022/07/11 12:34:40;;;;;;;0.00;0.00;;;;;;;;;;5053703;28;20229;-80
2022/07/11 12:37:08;;;;;;;0.00;0.00;;;;;;;;;;5053791;28;20546;-80
2022/07/11 12:39:35;;;;;;;0.00;0.00;;;;;;;;;;5053366;28;20735;-81
2022/07/11 12:42:20;;;;;;;0.00;0.00;;;;;;;;;;5053152;28;20227;-81
2022/07/11 12:45:07;;;;;;;0.00;0.00;;;;;;;;;;5053093;28;20200;-81
2022/07/11 12:47:34;;;;;;;0.00;0.00;;;;;;;;;;5053307;28;20178;-80
2022/07/11 12:50:07;;;;;;;0.00;0.00;;;;;;;;;;5052905;28;20193;-80
2022/07/11 12:52:37;;;;;;;0.10;0.10;;;;;;;;;;5052945;28;20174;-81
2022/07/11 12:55:03;;;;;;;0.00;0.00;;;;;;;;;;5052969;28;20574;-81
2022/07/11 12:57:29;;;;;;;0.00;0.00;;;;;;;;;;5053281;28;20182;-81
2022/07/11 12:59:56;;;;;;;0.00;0.00;;;;;;;;;;5053464;28;20224;-80
2022/07/11 13:02:26;;;;;;;0.00;0.00;;;;;;;;;;5052956;28;20259;-80
2022/07/11 13:04:53;;;;;;;0.00;0.00;;;;;;;;;;5052737;28;20231;-81
2022/07/11 13:10:24;;;;;;;0.00;0.00;;;;;;;;;;5053920;28;20172;-81
2022/07/11 13:12:52;;;;;;;0.00;0.00;;;;;;;;;;5053177;28;20268;-81
2022/07/11 13:15:18;;;;;;;0.00;0.00;;;;;;;;;;5052557;28;20726;-81
2022/07/11 13:17:47;;;;;;;0.00;0.00;;;;;;;;;;5052861;28;20181;-81
2022/07/11 13:20:14;;;;;;;0.00;0.00;;;;;;;;;;5052684;28;20296;-81
2022/07/11 13:22:45;;;;;;;0.10;0.10;;;;;;;;;;5053080;28;20173;-81
2022/07/11 13:25:12;;;;;;;0.00;0.00;;;;;;;;;;5055810;28;20195;-80
2022/07/11 13:27:38;;;;;;;0.00;0.00;;;;;;;;;;5069162;28;20220;-81
2022/07/11 13:30:10;;;;;;;0.00;0.00;;;;;;;;;;5069335;28;20212;-81
2022/07/11 13:32:37;;;;;;;0.10;0.10;;;;;;;;;;5054397;28;20200;-80
2022/07/11 13:35:03;;;;;;;0.00;0.00;;;;;;;;;;5071389;28;20209;-80
2022/07/11 13:37:29;;;;;;;0.10;0.10;;;;;;;;;;5071021;28;20182;-81
2022/07/11 13:39:55;;;;;;;0.17;0.17;;;;;;;;;;5071184;28;20177;-80
2022/07/11 13:42:21;;;;;;;0.00;0.00;;;;;;;;;;5070958;28;20184;-81
2022/07/11 13:44:47;;;;;;;0.00;0.00;;;;;;;;;;5071659;28;20185;-81
2022/07/11 13:47:13;;;;;;;0.00;0.00;;;;;;;;;;5071148;28;20184;-81
2022/07/11 13:49:39;;;;;;;0.00;0.00;;;;;;;;;;5072053;28;20197;-80
2022/07/11 13:52:05;;;;;;;0.00;0.00;;;;;;;;;;5071913;28;20667;-80
2022/07/11 13:54:32;;;;;;;0.00;0.00;;;;;;;;;;5071930;28;20284;-81
2022/07/11 13:56:58;;;;;;;0.00;0.00;;;;;;;;;;5056262;28;20192;-80
2022/07/11 13:59:24;;;;;;;0.00;0.00;;;;;;;;;;5071547;28;20198;-80
2022/07/11 14:01:50;;;;;;;0.00;0.00;;;;;;;;;;5072237;28;20197;-80
2022/07/11 14:04:16;;;;;;;0.00;0.00;;;;;;;;;;5055665;28;20540;-80
2022/07/11 14:06:42;;;;;;;0.00;0.00;;;;;;;;;;5072274;28;20186;-80
2022/07/11 14:09:08;;;;;;;0.00;0.00;;;;;;;;;;5055829;28;20197;-80
2022/07/11 14:11:34;;;;;;;0.20;0.20;;;;;;;;;;5055589;28;20582;-80
2022/07/11 14:14:01;;;;;;;0.00;0.00;;;;;;;;;;5056377;28;20255;-81
2022/07/11 14:16:27;;;;;;;0.00;0.00;;;;;;;;;;5056113;28;20185;-80
2022/07/11 14:18:52;;;;;;;0.00;0.00;;;;;;;;;;5055937;28;20206;-80
2022/07/11 14:21:18;;;;;;;0.00;0.00;;;;;;;;;;5056419;28;20174;-80
2022/07/11 14:23:45;;;;;;;0.00;0.00;;;;;;;;;;5072810;28;20177;-81
2022/07/11 14:26:11;;;;;;;0.00;0.00;;;;;;;;;;5073219;28;20190;-80
2022/07/11 14:28:37;;;;;;;0.00;0.00;;;;;;;;;;5056467;28;20185;-80
2022/07/11 14:31:03;;;;;;;0.00;0.00;;;;;;;;;;5071591;28;20188;-81
2022/07/11 14:33:29;;;;;;;0.00;0.00;;;;;;;;;;5069117;28;20181;-81
2022/07/11 14:35:55;;;;;;;0.00;0.00;;;;;;;;;;5052616;28;20187;-81
2022/07/11 14:38:21;;;;;;;0.00;0.00;;;;;;;;;;5069267;28;20197;-79
2022/07/11 14:40:47;;;;;;;0.00;0.00;;;;;;;;;;5069827;28;20178;-80
2022/07/11 14:43:13;;;;;;;0.00;0.00;;;;;;;;;;5069414;28;20184;-81
2022/07/11 14:45:39;;;;;;;0.00;0.00;;;;;;;;;;5069615;28;20178;-81
2022/07/11 14:48:05;;;;;;;0.00;0.00;;;;;;;;;;5052880;28;20729;-81
2022/07/11 14:50:34;;;;;;;0.00;0.00;;;;;;;;;;5069998;28;20185;-81
2022/07/11 14:53:00;;;;;;;0.00;0.00;;;;;;;;;;5069510;28;20252;-81
2022/07/11 14:55:26;;;;;;;0.00;0.00;;;;;;;;;;5069676;28;20205;-81
2022/07/11 14:57:52;;;;;;;0.00;0.00;;;;;;;;;;5069540;28;20210;-81
2022/07/11 15:00:20;;;;;;;0.00;0.00;;;;;;;;;;5069849;28;20235;-81
2022/07/11 15:05:30;;;;;;;0.00;0.00;;;;;;;;;;5067764;28;20231;-81
2022/07/11 15:13:27;;;;;;;0.00;0.00;;;;;;;;;;5070917;28;20172;-81
2022/07/11 15:15:53;;;;;;;0.00;0.00;;;;;;;;;;5074138;28;20173;-82